createdAt,value
2023-04-30T00:00:36.769Z,5.47
2023-04-30T00:03:05.391Z,5.63
2023-04-30T00:05:34.690Z,5.70
2023-04-30T00:08:02.643Z,5.80
2023-04-30T00:10:32.890Z,5.87
2023-04-30T00:13:00.807Z,5.70
2023-04-30T00:15:28.731Z,4.50
2023-04-30T00:17:56.776Z,5.37
2023-04-30T00:20:24.764Z,5.40
2023-04-30T00:22:54.054Z,5.33
2023-04-30T00:25:24.499Z,4.97
2023-04-30T00:27:52.483Z,5.00
2023-04-30T00:30:20.704Z,5.67
2023-04-30T00:32:48.615Z,4.80
2023-04-30T00:35:16.729Z,5.53
2023-04-30T00:37:44.709Z,5.20
2023-04-30T00:40:14.607Z,4.90
2023-04-30T00:42:42.482Z,5.87
2023-04-30T00:45:11.906Z,4.93
2023-04-30T00:47:40.033Z,4.57
2023-04-30T00:50:09.760Z,6.03
2023-04-30T00:52:37.747Z,5.10
2023-04-30T00:55:06.443Z,5.40
2023-04-30T00:57:38.559Z,4.90
2023-04-30T01:00:11.279Z,4.93
2023-04-30T01:02:39.578Z,5.10
2023-04-30T01:05:08.566Z,5.10
2023-04-30T01:07:38.610Z,5.27
2023-04-30T01:10:07.608Z,4.97
2023-04-30T01:12:41.510Z,4.97
2023-04-30T01:15:16.331Z,5.50
2023-04-30T01:17:50.960Z,5.00
2023-04-30T01:20:20.585Z,4.70
2023-04-30T01:22:54.486Z,5.03
2023-04-30T01:25:45.366Z,4.70
2023-04-30T01:28:16.994Z,4.80
2023-04-30T01:30:46.067Z,4.87
2023-04-30T01:33:14.556Z,5.57
2023-04-30T01:36:18.397Z,5.50
2023-04-30T01:39:01.614Z,5.80
2023-04-30T01:41:34.892Z,5.10
2023-04-30T01:44:18.523Z,4.77
2023-04-30T01:46:56.923Z,6.40
2023-04-30T01:49:33.815Z,5.90
2023-04-30T01:52:18.402Z,5.77
2023-04-30T01:54:52.205Z,5.97
2023-04-30T01:57:26.252Z,5.70
2023-04-30T01:59:54.384Z,5.57
2023-04-30T02:02:22.457Z,7.40
2023-04-30T02:04:51.666Z,6.23
2023-04-30T02:07:34.846Z,5.10
2023-04-30T02:10:04.714Z,5.50
2023-04-30T02:12:32.634Z,5.40
2023-04-30T02:15:00.721Z,5.10
2023-04-30T02:17:28.621Z,5.53
2023-04-30T02:19:56.714Z,5.03
2023-04-30T02:22:26.205Z,5.67
2023-04-30T02:24:55.708Z,4.57
2023-04-30T02:27:25.136Z,5.37
2023-04-30T02:29:53.605Z,5.83
2023-04-30T02:32:21.748Z,5.60
2023-04-30T02:34:51.427Z,6.20
2023-04-30T02:37:19.456Z,5.37
2023-04-30T02:39:48.917Z,4.93
2023-04-30T02:42:16.821Z,5.30
2023-04-30T02:44:44.714Z,5.50
2023-04-30T02:47:12.682Z,5.53
2023-04-30T02:49:40.990Z,6.03
2023-04-30T02:52:10.000Z,5.00
2023-04-30T02:54:37.933Z,5.13
2023-04-30T02:57:07.346Z,5.40
2023-04-30T02:59:35.421Z,5.13
2023-04-30T03:02:03.350Z,5.40
2023-04-30T03:04:31.309Z,5.10
2023-04-30T03:07:01.586Z,5.17
2023-04-30T03:09:29.490Z,5.30
2023-04-30T03:11:57.353Z,5.33
2023-04-30T03:14:26.607Z,5.03
2023-04-30T03:16:54.498Z,5.07
2023-04-30T03:19:25.190Z,5.17
2023-04-30T03:21:55.324Z,5.20
2023-04-30T03:24:23.227Z,4.83
2023-04-30T03:26:51.080Z,4.93
2023-04-30T03:29:19.036Z,5.07
2023-04-30T03:31:48.490Z,5.87
2023-04-30T03:34:16.537Z,5.13
2023-04-30T03:36:46.732Z,5.10
2023-04-30T03:39:16.311Z,4.73
2023-04-30T03:41:44.236Z,6.00
2023-04-30T03:44:15.703Z,6.23
2023-04-30T03:46:44.232Z,5.13
2023-04-30T03:49:13.595Z,6.10
2023-04-30T03:51:42.295Z,5.50
2023-04-30T03:54:10.355Z,5.50
2023-04-30T03:56:38.847Z,5.80
2023-04-30T03:59:09.642Z,5.00
2023-04-30T04:01:37.579Z,5.43
2023-04-30T04:04:05.784Z,5.50
2023-04-30T04:06:35.090Z,5.20
2023-04-30T04:09:03.862Z,5.20
2023-04-30T04:11:31.839Z,5.20
2023-04-30T04:13:59.753Z,5.90
2023-04-30T04:16:27.804Z,5.50
2023-04-30T04:18:55.899Z,5.37
2023-04-30T04:21:23.790Z,6.03
2023-04-30T04:23:53.100Z,5.67
2023-04-30T04:26:21.785Z,4.80
2023-04-30T04:28:50.112Z,5.13
2023-04-30T04:31:18.080Z,5.20
2023-04-30T04:33:46.346Z,5.23
2023-04-30T04:36:14.234Z,5.13
2023-04-30T04:38:42.333Z,5.67
2023-04-30T04:41:11.585Z,4.93
2023-04-30T04:43:39.505Z,5.70
2023-04-30T04:46:09.639Z,5.37
2023-04-30T04:48:38.590Z,5.00
2023-04-30T04:51:06.896Z,5.10
2023-04-30T04:53:35.010Z,5.00
2023-04-30T04:56:03.180Z,5.70
2023-04-30T04:58:32.792Z,5.50
2023-04-30T05:01:01.245Z,5.87
2023-04-30T05:03:30.496Z,5.70
2023-04-30T05:05:58.461Z,5.40
2023-04-30T05:08:27.425Z,5.50
2023-04-30T05:10:55.445Z,5.40
2023-04-30T05:13:23.381Z,6.27
2023-04-30T05:15:54.216Z,5.07
2023-04-30T05:18:22.243Z,6.00
2023-04-30T05:20:50.249Z,5.27
2023-04-30T05:23:18.196Z,5.23
2023-04-30T05:25:46.256Z,6.20
2023-04-30T05:28:14.155Z,5.93
2023-04-30T05:30:42.034Z,5.90
2023-04-30T05:33:11.734Z,6.40
2023-04-30T05:35:39.889Z,5.70
2023-04-30T05:38:07.779Z,5.23
2023-04-30T05:40:35.758Z,5.20
2023-04-30T05:43:03.620Z,5.80
2023-04-30T05:45:31.576Z,5.57
2023-04-30T05:47:59.529Z,5.37
2023-04-30T05:50:28.855Z,4.83
2023-04-30T05:52:56.742Z,4.80
2023-04-30T05:55:24.655Z,5.80
2023-04-30T05:57:52.584Z,4.80
2023-04-30T06:00:20.691Z,4.97
2023-04-30T06:02:50.683Z,5.03
2023-04-30T06:05:18.656Z,5.23
2023-04-30T06:07:48.037Z,4.17
2023-04-30T06:10:15.994Z,4.27
2023-04-30T06:12:43.925Z,5.10
2023-04-30T06:15:12.221Z,4.53
2023-04-30T06:17:40.210Z,3.60
2023-04-30T06:20:09.589Z,4.33
2023-04-30T06:22:37.865Z,4.10
2023-04-30T06:25:08.711Z,4.07
2023-04-30T06:27:36.678Z,3.70
2023-04-30T06:30:05.073Z,3.67
2023-04-30T06:32:33.000Z,3.43
2023-04-30T06:35:01.162Z,4.00
2023-04-30T06:37:29.100Z,4.87
2023-04-30T06:39:57.229Z,3.63
2023-04-30T06:42:26.701Z,3.40
2023-04-30T06:44:55.414Z,4.30
2023-04-30T06:47:23.325Z,3.60
2023-04-30T06:49:51.292Z,3.77
2023-04-30T06:52:19.196Z,3.50
2023-04-30T06:54:47.131Z,3.30
2023-04-30T06:57:15.010Z,3.30
2023-04-30T06:59:46.392Z,3.63
2023-04-30T07:02:14.361Z,3.40
2023-04-30T07:04:42.280Z,3.37
2023-04-30T07:07:10.558Z,3.20
2023-04-30T07:09:38.461Z,3.73
2023-04-30T07:12:06.427Z,3.50
2023-04-30T07:14:34.407Z,3.60
2023-04-30T07:17:03.711Z,2.87
2023-04-30T07:19:32.488Z,2.80
2023-04-30T07:22:00.465Z,3.93
2023-04-30T07:24:28.368Z,3.13
2023-04-30T07:26:56.354Z,3.53
2023-04-30T07:29:24.255Z,3.63
2023-04-30T07:31:52.163Z,2.77
2023-04-30T07:34:21.428Z,3.20
2023-04-30T07:36:49.714Z,2.70
2023-04-30T07:39:17.912Z,2.83
2023-04-30T07:41:46.078Z,3.40
2023-04-30T07:44:13.982Z,3.50
2023-04-30T07:46:41.941Z,3.63
2023-04-30T07:49:09.880Z,3.43
2023-04-30T07:51:39.502Z,2.60
2023-04-30T07:54:07.368Z,2.73
2023-04-30T07:56:36.076Z,2.90
2023-04-30T07:59:04.012Z,3.00
2023-04-30T08:01:31.935Z,3.50
2023-04-30T08:03:59.996Z,3.20
2023-04-30T08:06:28.930Z,3.87
2023-04-30T08:08:58.218Z,3.20
2023-04-30T08:11:26.210Z,3.33
2023-04-30T08:13:54.136Z,3.37
2023-04-30T08:16:22.122Z,3.87
2023-04-30T08:18:50.072Z,2.87
2023-04-30T08:21:18.601Z,2.93
2023-04-30T08:23:49.581Z,3.40
2023-04-30T08:26:18.813Z,3.10
2023-04-30T08:28:46.685Z,3.40
2023-04-30T08:31:14.983Z,3.40
2023-04-30T08:33:42.907Z,2.60
2023-04-30T08:36:11.049Z,2.93
2023-04-30T08:38:39.024Z,3.17
2023-04-30T08:41:12.327Z,3.63
2023-04-30T08:43:42.379Z,3.03
2023-04-30T08:46:13.026Z,4.33
2023-04-30T08:48:42.482Z,2.90
2023-04-30T08:51:10.451Z,2.90
2023-04-30T08:53:39.270Z,2.80
2023-04-30T08:56:07.776Z,3.50
2023-04-30T08:58:36.060Z,3.10
2023-04-30T09:01:08.741Z,3.10
2023-04-30T09:03:37.691Z,3.30
2023-04-30T09:06:05.921Z,3.37
2023-04-30T09:08:44.560Z,2.87
2023-04-30T09:11:26.428Z,3.50
2023-04-30T09:13:55.583Z,3.10
2023-04-30T09:16:25.874Z,3.40
2023-04-30T09:18:57.415Z,2.80
2023-04-30T09:21:35.912Z,3.27
2023-04-30T09:24:05.956Z,3.40
2023-04-30T09:26:35.714Z,3.10
2023-04-30T09:29:07.991Z,3.47
2023-04-30T09:31:39.100Z,3.20
2023-04-30T09:34:07.550Z,3.10
2023-04-30T09:36:35.907Z,3.10
2023-04-30T09:39:14.134Z,2.90
2023-04-30T09:41:43.366Z,2.67
2023-04-30T09:44:28.472Z,3.13
2023-04-30T09:46:59.372Z,2.73
2023-04-30T09:49:27.893Z,2.90
2023-04-30T09:51:57.023Z,3.27
2023-04-30T09:54:27.694Z,3.33
2023-04-30T09:56:57.970Z,3.53
2023-04-30T09:59:31.666Z,2.93
2023-04-30T10:02:02.173Z,3.27
2023-04-30T10:04:33.200Z,3.40
2023-04-30T10:07:03.509Z,2.97
2023-04-30T10:09:43.968Z,3.53
2023-04-30T10:12:16.456Z,3.43
2023-04-30T10:14:50.238Z,3.03
2023-04-30T10:17:21.673Z,2.80
2023-04-30T10:19:53.244Z,3.13
2023-04-30T10:22:22.037Z,3.37
2023-04-30T10:24:50.942Z,2.97
2023-04-30T10:27:20.030Z,3.90
2023-04-30T10:29:49.950Z,3.30
2023-04-30T10:32:21.416Z,3.20
2023-04-30T10:34:55.827Z,2.90
2023-04-30T10:37:32.322Z,3.23
2023-04-30T10:40:02.015Z,3.00
2023-04-30T10:42:29.966Z,3.10
2023-04-30T10:44:58.022Z,3.30
2023-04-30T10:47:31.401Z,3.03
2023-04-30T10:50:04.330Z,3.63
2023-04-30T10:52:32.307Z,3.93
2023-04-30T10:55:01.463Z,3.40
2023-04-30T10:57:30.942Z,3.23
2023-04-30T11:00:20.228Z,3.37
2023-04-30T11:02:49.826Z,3.50
2023-04-30T11:05:19.313Z,3.50
2023-04-30T11:07:51.369Z,3.17
2023-04-30T11:10:22.979Z,3.67
2023-04-30T11:12:51.888Z,3.40
2023-04-30T11:15:22.756Z,2.80
2023-04-30T11:17:52.446Z,3.20
2023-04-30T11:20:22.148Z,3.27
2023-04-30T11:23:08.732Z,3.00
2023-04-30T11:25:41.708Z,3.40
2023-04-30T11:28:14.240Z,3.80
2023-04-30T11:30:43.539Z,3.40
2023-04-30T11:33:20.358Z,3.20
2023-04-30T11:35:49.962Z,3.20
2023-04-30T11:38:19.383Z,3.33
2023-04-30T11:40:49.604Z,3.43
2023-04-30T11:43:24.853Z,3.60
2023-04-30T11:46:08.205Z,3.80
2023-04-30T11:48:38.958Z,2.97
2023-04-30T11:51:15.545Z,3.70
2023-04-30T11:53:44.160Z,3.17
2023-04-30T11:56:12.275Z,3.03
2023-04-30T11:58:40.490Z,3.77
2023-04-30T12:01:10.842Z,2.90
2023-04-30T12:03:44.936Z,2.87
2023-04-30T12:06:13.557Z,2.87
2023-04-30T12:08:43.135Z,3.30
2023-04-30T12:11:25.159Z,3.20
2023-04-30T12:13:54.436Z,3.60
2023-04-30T12:16:22.469Z,3.13
2023-04-30T12:18:52.810Z,3.30
2023-04-30T12:21:22.520Z,3.63
2023-04-30T12:23:50.636Z,3.40
2023-04-30T12:26:18.839Z,4.00
2023-04-30T12:28:49.094Z,3.27
2023-04-30T12:31:19.141Z,3.53
2023-04-30T12:33:56.927Z,3.40
2023-04-30T12:36:32.578Z,3.67
2023-04-30T12:39:07.176Z,3.13
2023-04-30T12:41:38.183Z,3.80
2023-04-30T12:44:18.855Z,3.43
2023-04-30T12:46:47.993Z,4.70
2023-04-30T12:49:26.116Z,3.37
2023-04-30T12:51:58.887Z,3.27
2023-04-30T12:54:27.907Z,3.13
2023-04-30T12:57:06.013Z,3.70
2023-04-30T12:59:35.905Z,3.50
2023-04-30T13:02:08.918Z,3.10
2023-04-30T13:04:42.542Z,2.87
2023-04-30T13:07:11.285Z,3.17
2023-04-30T13:09:39.707Z,3.07
2023-04-30T13:12:07.840Z,3.10
2023-04-30T13:14:36.135Z,3.13
2023-04-30T13:17:05.812Z,3.50
2023-04-30T13:19:35.148Z,3.33
2023-04-30T13:22:04.472Z,3.30
2023-04-30T13:24:32.412Z,3.10
2023-04-30T13:27:00.367Z,3.90
2023-04-30T13:29:28.311Z,3.30
2023-04-30T13:31:56.412Z,2.93
2023-04-30T13:34:24.431Z,3.43
2023-04-30T13:36:53.427Z,3.53
2023-04-30T13:39:23.109Z,3.93
2023-04-30T13:41:53.773Z,3.60
2023-04-30T13:44:21.703Z,3.20
2023-04-30T13:46:49.976Z,3.30
2023-04-30T13:49:17.944Z,3.27
2023-04-30T13:51:45.837Z,3.13
2023-04-30T13:54:13.768Z,3.17
2023-04-30T13:56:43.112Z,3.03
2023-04-30T13:59:11.771Z,3.20
2023-04-30T14:01:40.360Z,3.43
2023-04-30T14:04:08.416Z,3.60
2023-04-30T14:06:36.797Z,3.47
2023-04-30T14:09:04.782Z,3.30
2023-04-30T14:11:32.721Z,3.20
2023-04-30T14:14:02.119Z,3.27
2023-04-30T14:16:30.456Z,3.50
2023-04-30T14:18:58.423Z,3.80
2023-04-30T14:21:27.531Z,3.20
2023-04-30T14:23:56.304Z,3.50
2023-04-30T14:26:24.264Z,3.20
2023-04-30T14:28:52.236Z,3.00
2023-04-30T14:31:21.570Z,3.50
2023-04-30T14:33:49.495Z,2.87
2023-04-30T14:36:17.506Z,3.23
2023-04-30T14:38:45.442Z,3.27
2023-04-30T14:41:14.108Z,3.40
2023-04-30T14:43:42.313Z,3.00
2023-04-30T14:46:10.282Z,3.07
2023-04-30T14:48:39.783Z,3.47
2023-04-30T14:51:07.794Z,3.20
2023-04-30T14:53:35.735Z,3.17
2023-04-30T14:56:04.053Z,3.20
2023-04-30T14:58:31.927Z,3.37
2023-04-30T15:00:59.889Z,3.23
2023-04-30T15:03:28.020Z,3.13
2023-04-30T15:05:57.974Z,3.43
2023-04-30T15:08:26.087Z,3.30
2023-04-30T15:10:53.989Z,3.20
2023-04-30T15:13:21.902Z,3.73
2023-04-30T15:15:49.891Z,3.80
2023-04-30T15:18:17.854Z,3.50
2023-04-30T15:20:45.773Z,3.20
2023-04-30T15:23:15.021Z,3.27
2023-04-30T15:25:44.066Z,3.43
2023-04-30T15:28:11.993Z,3.30
2023-04-30T15:30:40.091Z,3.13
2023-04-30T15:33:08.022Z,3.70
2023-04-30T15:35:35.936Z,4.20
2023-04-30T15:38:03.839Z,3.60
2023-04-30T15:40:33.100Z,3.77
2023-04-30T15:43:01.015Z,4.20
2023-04-30T15:45:29.429Z,3.97
2023-04-30T15:47:57.401Z,4.40
2023-04-30T15:50:25.416Z,4.10
2023-04-30T15:52:53.328Z,4.27
2023-04-30T15:55:21.335Z,3.87
2023-04-30T15:57:50.658Z,3.90
2023-04-30T16:00:19.184Z,4.40
2023-04-30T16:02:50.255Z,4.37
2023-04-30T16:05:18.955Z,3.73
2023-04-30T16:07:46.922Z,4.47
2023-04-30T16:10:14.967Z,4.07
2023-04-30T16:12:42.889Z,3.53
2023-04-30T16:15:12.887Z,3.57
2023-04-30T16:17:41.033Z,3.33
2023-04-30T16:20:10.400Z,3.40
2023-04-30T16:22:38.356Z,3.90
2023-04-30T16:25:09.852Z,4.30
2023-04-30T16:27:37.864Z,3.40
2023-04-30T16:30:07.293Z,3.93
2023-04-30T16:32:36.597Z,4.20
2023-04-30T16:35:04.691Z,3.37
2023-04-30T16:37:32.638Z,4.03
2023-04-30T16:40:01.506Z,3.80
2023-04-30T16:42:30.097Z,3.87
2023-04-30T16:44:58.190Z,3.73
2023-04-30T16:47:26.252Z,3.30
2023-04-30T16:49:56.178Z,4.10
2023-04-30T16:52:24.421Z,3.20
2023-04-30T16:54:52.341Z,3.50
2023-04-30T16:57:21.051Z,3.50
2023-04-30T16:59:48.943Z,3.40
2023-04-30T17:02:16.923Z,3.00
2023-04-30T17:04:45.110Z,3.40
2023-04-30T17:07:14.528Z,3.80
2023-04-30T17:09:42.429Z,3.20
2023-04-30T17:12:10.473Z,3.53
2023-04-30T17:14:38.609Z,3.77
2023-04-30T17:17:06.498Z,3.60
2023-04-30T17:19:34.446Z,3.60
2023-04-30T17:22:02.652Z,3.40
2023-04-30T17:24:31.938Z,3.87
2023-04-30T17:27:01.005Z,3.43
2023-04-30T17:29:28.948Z,4.10
2023-04-30T17:31:56.976Z,3.53
2023-04-30T17:34:25.070Z,4.03
2023-04-30T17:36:52.953Z,3.73
2023-04-30T17:39:21.142Z,3.67
2023-04-30T17:41:50.584Z,3.57
2023-04-30T17:44:19.367Z,4.10
2023-04-30T17:46:47.418Z,3.77
2023-04-30T17:49:15.445Z,4.27
2023-04-30T17:51:43.341Z,3.73
2023-04-30T17:54:11.267Z,4.00
2023-04-30T17:56:42.084Z,4.20
2023-04-30T17:59:11.373Z,3.60
2023-04-30T18:01:40.065Z,4.00
2023-04-30T18:04:09.243Z,4.53
2023-04-30T18:06:37.291Z,4.27
2023-04-30T18:09:05.288Z,4.10
2023-04-30T18:11:33.595Z,4.37
2023-04-30T18:14:01.929Z,4.00
2023-04-30T18:16:31.896Z,3.90
2023-04-30T18:18:59.855Z,4.20
2023-04-30T18:21:27.998Z,4.60
2023-04-30T18:23:56.248Z,4.50
2023-04-30T18:26:25.268Z,4.17
2023-04-30T18:28:53.374Z,5.07
2023-04-30T18:31:21.311Z,4.90
2023-04-30T18:33:50.667Z,4.63
2023-04-30T18:36:18.678Z,4.70
2023-04-30T18:38:46.579Z,4.40
2023-04-30T18:41:14.507Z,5.27
2023-04-30T18:43:43.216Z,4.43
2023-04-30T18:46:11.210Z,4.80
2023-04-30T18:48:39.149Z,4.83
2023-04-30T18:51:08.410Z,4.87
2023-04-30T18:53:36.997Z,5.23
2023-04-30T18:56:05.078Z,5.33
2023-04-30T18:58:33.042Z,5.50
2023-04-30T19:01:00.988Z,5.50
2023-04-30T19:03:30.396Z,5.80
2023-04-30T19:05:58.657Z,7.37
2023-04-30T19:08:28.035Z,9.73
2023-04-30T19:10:56.820Z,15.70
2023-04-30T19:13:24.841Z,16.73
2023-04-30T19:15:53.715Z,13.90
2023-04-30T19:18:24.419Z,14.60
2023-04-30T19:21:00.260Z,14.87
2023-04-30T19:23:31.551Z,14.53
2023-04-30T19:26:00.299Z,13.80
2023-04-30T19:28:28.517Z,13.63
2023-04-30T19:30:57.243Z,13.43
2023-04-30T19:33:26.128Z,13.33
2023-04-30T19:35:54.787Z,10.97
2023-04-30T19:38:23.024Z,10.90
2023-04-30T19:40:54.149Z,12.57
2023-04-30T19:43:23.590Z,11.43
2023-04-30T19:45:53.129Z,11.97
2023-04-30T19:48:22.030Z,12.20
2023-04-30T19:50:51.362Z,10.57
2023-04-30T19:53:19.487Z,9.83
2023-04-30T19:55:47.428Z,10.17
2023-04-30T19:58:16.748Z,9.20
2023-04-30T20:00:46.024Z,9.90
2023-04-30T20:03:15.182Z,10.17
2023-04-30T20:05:43.816Z,9.70
2023-04-30T20:08:11.909Z,11.00
2023-04-30T20:10:40.968Z,10.83
2023-04-30T20:13:09.365Z,11.40
2023-04-30T20:15:38.735Z,11.97
2023-04-30T20:18:06.771Z,11.40
2023-04-30T20:20:34.805Z,11.90
2023-04-30T20:23:13.907Z,12.47
2023-04-30T20:25:42.788Z,13.43
2023-04-30T20:28:10.736Z,12.93
2023-04-30T20:30:42.747Z,13.60
2023-04-30T20:33:10.732Z,14.20
2023-04-30T20:35:40.911Z,14.00
2023-04-30T20:38:09.290Z,14.57
2023-04-30T20:40:40.026Z,15.13
2023-04-30T20:43:08.588Z,14.73
2023-04-30T20:45:36.832Z,14.80
2023-04-30T20:48:07.429Z,13.63
2023-04-30T20:50:35.593Z,14.53
2023-04-30T20:53:03.659Z,14.33
2023-04-30T20:55:31.614Z,15.10
2023-04-30T20:57:59.567Z,15.20
2023-04-30T21:00:27.744Z,15.63
2023-04-30T21:02:55.771Z,15.50
2023-04-30T21:05:25.465Z,15.87
2023-04-30T21:07:53.438Z,16.80
2023-04-30T21:10:21.641Z,15.90
2023-04-30T21:12:49.609Z,15.30
2023-04-30T21:15:17.794Z,17.17
2023-04-30T21:17:45.973Z,15.00
2023-04-30T21:20:14.440Z,14.73
2023-04-30T21:22:43.767Z,14.50
2023-04-30T21:25:12.272Z,15.90
2023-04-30T21:27:40.408Z,15.93
2023-04-30T21:30:10.230Z,16.77
2023-04-30T21:32:38.264Z,17.23
2023-04-30T21:35:06.916Z,18.20
2023-04-30T21:37:34.857Z,17.73
2023-04-30T21:40:04.677Z,17.50
2023-04-30T21:42:33.746Z,16.97
2023-04-30T21:45:01.716Z,17.67
2023-04-30T21:47:30.518Z,16.93
2023-04-30T21:49:59.423Z,17.20
2023-04-30T21:52:27.653Z,16.70
2023-04-30T21:54:55.760Z,17.70
2023-04-30T21:57:25.109Z,17.60
2023-04-30T21:59:53.171Z,19.13
2023-04-30T22:02:24.263Z,19.10
2023-04-30T22:04:53.326Z,17.57
2023-04-30T22:07:21.490Z,19.13
2023-04-30T22:09:49.787Z,17.83
2023-04-30T22:12:19.214Z,16.77
2023-04-30T22:14:50.182Z,16.37
2023-04-30T22:17:18.181Z,15.10
2023-04-30T22:19:46.146Z,15.83
2023-04-30T22:22:14.088Z,15.10
2023-04-30T22:24:42.115Z,17.30
2023-04-30T22:27:10.026Z,16.13
2023-04-30T22:29:37.907Z,17.80
2023-04-30T22:32:07.596Z,18.50
2023-04-30T22:34:38.660Z,24.17
2023-04-30T22:37:06.864Z,25.13
2023-04-30T22:39:34.864Z,22.53
2023-04-30T22:42:03.537Z,21.73
2023-04-30T22:44:32.218Z,21.33
2023-04-30T22:47:00.456Z,21.13
2023-04-30T22:49:31.998Z,18.20
2023-04-30T22:52:01.240Z,19.13
2023-04-30T22:54:29.461Z,18.40
2023-04-30T22:56:58.145Z,16.80
2023-04-30T22:59:26.220Z,16.17
2023-04-30T23:01:54.307Z,14.73
2023-04-30T23:04:22.539Z,14.40
2023-04-30T23:06:51.957Z,14.27
2023-04-30T23:09:19.877Z,14.47
2023-04-30T23:11:48.268Z,13.90
2023-04-30T23:14:16.293Z,13.50
2023-04-30T23:16:44.529Z,12.60
2023-04-30T23:19:12.806Z,12.10
2023-04-30T23:21:40.792Z,11.93
2023-04-30T23:24:11.086Z,11.80
2023-04-30T23:26:39.061Z,12.83
2023-04-30T23:29:07.154Z,11.67
2023-04-30T23:31:35.129Z,12.50
2023-04-30T23:34:03.144Z,12.00
2023-04-30T23:36:31.156Z,11.37
2023-04-30T23:38:59.059Z,12.00
2023-04-30T23:41:28.329Z,12.13
2023-04-30T23:43:56.218Z,11.17
2023-04-30T23:46:24.956Z,10.60
2023-04-30T23:48:52.943Z,10.70
2023-04-30T23:51:22.428Z,11.10
2023-04-30T23:53:50.411Z,11.03
2023-04-30T23:56:18.406Z,10.97
2023-04-30T23:58:47.672Z,10.87
